createdAt,value
2019-02-21T00:00:51.896Z,30.17
2019-02-21T00:03:41.707Z,29.83
2019-02-21T00:06:12.408Z,38.30
2019-02-21T00:08:43.194Z,29.50
2019-02-21T00:11:13.922Z,30.20
2019-02-21T00:13:44.664Z,27.80
2019-02-21T00:16:15.397Z,32.47
2019-02-21T00:18:46.055Z,30.53
2019-02-21T00:21:16.685Z,31.37
2019-02-21T00:23:47.660Z,30.30
2019-02-21T00:26:18.218Z,27.10
2019-02-21T00:28:48.938Z,29.13
2019-02-21T00:31:19.956Z,34.73
2019-02-21T00:33:50.694Z,29.50
2019-02-21T00:36:22.298Z,27.23
2019-02-21T00:38:53.022Z,30.50
2019-02-21T00:41:23.632Z,33.10
2019-02-21T00:43:54.374Z,27.13
2019-02-21T00:46:24.984Z,29.70
2019-02-21T00:48:55.565Z,28.47
2019-02-21T00:51:26.113Z,28.27
2019-02-21T00:53:56.866Z,28.57
2019-02-21T00:56:27.581Z,31.90
2019-02-21T00:58:58.315Z,33.57
2019-02-21T01:01:28.950Z,29.67
2019-02-21T01:03:59.726Z,29.87
2019-02-21T01:06:29.866Z,33.33
2019-02-21T01:13:04.748Z,30.40
2019-02-21T01:15:35.432Z,34.37
2019-02-21T01:18:06.192Z,30.33
2019-02-21T01:20:36.958Z,33.43
2019-02-21T01:23:07.725Z,36.53
2019-02-21T01:25:38.390Z,34.60
2019-02-21T01:28:09.049Z,34.63
2019-02-21T01:30:39.789Z,29.57
2019-02-21T01:33:10.494Z,35.03
2019-02-21T01:35:41.169Z,31.43
2019-02-21T01:38:11.814Z,30.97
2019-02-21T01:40:42.481Z,34.77
2019-02-21T01:43:13.139Z,33.43
2019-02-21T01:45:43.897Z,27.57
2019-02-21T01:48:14.686Z,28.50
2019-02-21T01:50:45.346Z,31.60
2019-02-21T01:53:16.085Z,28.10
2019-02-21T01:55:46.764Z,30.90
2019-02-21T01:58:17.485Z,30.43
2019-02-21T02:00:48.225Z,29.90
2019-02-21T02:03:18.949Z,29.13
2019-02-21T02:05:49.701Z,31.30
2019-02-21T02:08:20.347Z,38.87
2019-02-21T02:10:52.181Z,28.23
2019-02-21T02:13:24.863Z,28.07
2019-02-21T02:15:55.141Z,32.23
2019-02-21T02:18:25.725Z,31.50
2019-02-21T02:20:56.389Z,34.77
2019-02-21T02:23:27.058Z,30.37
2019-02-21T02:25:57.702Z,29.03
2019-02-21T02:28:28.317Z,31.67
2019-02-21T02:30:58.908Z,31.13
2019-02-21T02:33:29.521Z,32.50
2019-02-21T02:36:00.163Z,36.70
2019-02-21T02:38:30.813Z,33.80
2019-02-21T02:41:01.455Z,36.53
2019-02-21T02:43:32.171Z,32.07
2019-02-21T02:46:02.792Z,30.07
2019-02-21T02:48:33.422Z,32.37
2019-02-21T02:51:04.053Z,30.37
2019-02-21T02:53:34.683Z,33.83
2019-02-21T02:56:05.369Z,35.27
2019-02-21T02:58:35.929Z,29.63
2019-02-21T03:01:06.582Z,28.37
2019-02-21T03:03:37.134Z,33.67
2019-02-21T03:06:07.786Z,28.27
2019-02-21T03:08:38.397Z,34.80
2019-02-21T03:11:09.042Z,39.00
2019-02-21T03:13:39.822Z,28.97
2019-02-21T03:16:10.482Z,34.33
2019-02-21T03:18:41.194Z,35.47
2019-02-21T03:21:11.846Z,31.10
2019-02-21T03:23:42.551Z,30.43
2019-02-21T03:26:13.111Z,33.13
2019-02-21T03:28:43.733Z,33.90
2019-02-21T03:31:14.452Z,31.93
2019-02-21T03:33:45.093Z,29.63
2019-02-21T03:36:15.794Z,31.50
2019-02-21T03:38:46.826Z,38.07
2019-02-21T03:41:17.461Z,32.63
2019-02-21T03:43:48.085Z,31.40
2019-02-21T03:46:18.914Z,35.30
2019-02-21T03:48:49.534Z,33.00
2019-02-21T03:51:20.246Z,30.97
2019-02-21T03:53:50.792Z,33.80
2019-02-21T03:56:21.422Z,29.80
2019-02-21T03:58:53.144Z,28.67
2019-02-21T04:01:23.861Z,33.30
2019-02-21T04:03:54.493Z,34.53
2019-02-21T04:06:25.163Z,31.60
2019-02-21T04:08:55.760Z,33.17
2019-02-21T04:11:27.541Z,34.77
2019-02-21T04:13:58.246Z,32.63
2019-02-21T04:16:28.966Z,35.43
2019-02-21T04:18:59.675Z,32.77
2019-02-21T04:21:30.341Z,34.30
2019-02-21T04:24:00.976Z,37.37
2019-02-21T04:26:31.714Z,35.53
2019-02-21T04:29:02.355Z,35.10
2019-02-21T04:31:33.047Z,29.63
2019-02-21T04:34:03.806Z,32.57
2019-02-21T04:36:34.473Z,37.40
2019-02-21T04:39:05.759Z,41.57
2019-02-21T04:41:36.753Z,34.50
2019-02-21T04:44:07.385Z,32.70
2019-02-21T04:46:38.059Z,36.87
2019-02-21T04:49:08.680Z,31.70
2019-02-21T04:51:39.268Z,38.43
2019-02-21T04:54:09.928Z,31.10
2019-02-21T04:56:40.675Z,39.03
2019-02-21T04:59:11.319Z,36.20
2019-02-21T05:01:41.953Z,32.87
2019-02-21T05:04:12.702Z,34.03
2019-02-21T05:06:43.336Z,32.87
2019-02-21T05:09:13.923Z,33.07
2019-02-21T05:11:44.693Z,35.87
2019-02-21T05:14:15.451Z,33.07
2019-02-21T05:16:46.181Z,36.27
2019-02-21T05:19:16.833Z,30.10
2019-02-21T05:21:48.445Z,34.37
2019-02-21T05:24:19.192Z,33.77
2019-02-21T05:26:56.884Z,39.23
2019-02-21T05:29:27.540Z,34.67
2019-02-21T05:32:08.698Z,32.90
2019-02-21T05:34:44.132Z,34.23
2019-02-21T05:37:42.973Z,38.13
2019-02-21T05:40:50.771Z,35.27
2019-02-21T05:43:26.803Z,35.00
2019-02-21T05:46:14.317Z,34.07
2019-02-21T05:48:57.504Z,36.90
2019-02-21T05:51:51.722Z,36.10
2019-02-21T05:54:43.896Z,37.00
2019-02-21T05:57:42.860Z,32.43
2019-02-21T06:00:36.889Z,37.50
2019-02-21T06:03:30.014Z,36.10
2019-02-21T06:06:13.214Z,35.20
2019-02-21T06:09:11.853Z,37.37
2019-02-21T06:12:13.601Z,33.63
2019-02-21T06:15:12.188Z,56.13
2019-02-21T06:18:01.801Z,39.60
2019-02-21T06:20:54.245Z,33.83
2019-02-21T06:23:39.398Z,34.40
2019-02-21T06:26:28.534Z,35.10
2019-02-21T06:29:12.543Z,35.83
2019-02-21T06:31:43.229Z,33.80
2019-02-21T06:34:13.823Z,36.43
2019-02-21T06:36:44.446Z,35.67
2019-02-21T06:39:15.043Z,42.10
2019-02-21T06:41:45.674Z,43.40
2019-02-21T06:44:16.312Z,37.70
2019-02-21T06:46:46.919Z,36.60
2019-02-21T06:49:17.572Z,38.07
2019-02-21T06:51:49.275Z,40.20
2019-02-21T06:54:22.421Z,38.90
2019-02-21T06:56:52.273Z,36.20
2019-02-21T06:59:23.727Z,40.90
2019-02-21T07:01:54.464Z,38.97
2019-02-21T07:04:26.092Z,36.37
2019-02-21T07:06:56.974Z,35.03
2019-02-21T07:09:27.714Z,40.70
2019-02-21T07:11:58.449Z,32.50
2019-02-21T07:14:29.062Z,36.33
2019-02-21T07:16:59.682Z,34.40
2019-02-21T07:19:30.336Z,34.87
2019-02-21T07:22:00.890Z,36.83
2019-02-21T07:24:31.604Z,38.63
2019-02-21T07:27:02.209Z,36.90
2019-02-21T07:29:32.853Z,38.60
2019-02-21T07:32:03.566Z,32.43
2019-02-21T07:34:34.219Z,36.27
2019-02-21T07:37:04.853Z,37.23
2019-02-21T07:39:36.602Z,36.00
2019-02-21T07:42:07.354Z,37.20
2019-02-21T07:44:38.001Z,37.63
2019-02-21T07:47:08.550Z,37.03
2019-02-21T07:49:39.208Z,34.43
2019-02-21T07:52:09.836Z,38.10
2019-02-21T07:54:40.506Z,32.33
2019-02-21T07:57:11.212Z,37.03
2019-02-21T07:59:41.879Z,42.70
2019-02-21T08:02:12.508Z,40.43
2019-02-21T08:04:43.097Z,34.17
2019-02-21T08:07:13.720Z,36.30
2019-02-21T08:09:44.385Z,35.03
2019-02-21T08:12:15.123Z,33.23
2019-02-21T08:14:45.742Z,32.47
2019-02-21T08:17:16.471Z,34.30
2019-02-21T08:19:47.033Z,32.03
2019-02-21T08:22:17.665Z,30.10
2019-02-21T08:24:48.229Z,31.43
2019-02-21T08:27:18.877Z,32.90
2019-02-21T08:29:49.436Z,30.73
2019-02-21T08:32:23.471Z,27.10
2019-02-21T08:34:54.244Z,33.83
2019-02-21T08:37:24.906Z,30.80
2019-02-21T08:39:55.524Z,30.30
2019-02-21T08:42:26.099Z,29.53
2019-02-21T08:44:56.803Z,28.60
2019-02-21T08:47:27.466Z,29.80
2019-02-21T08:49:59.854Z,32.87
2019-02-21T08:52:30.558Z,30.30
2019-02-21T08:55:01.113Z,27.00
2019-02-21T08:57:32.749Z,26.50
2019-02-21T09:00:03.480Z,31.10
2019-02-21T09:02:35.922Z,27.13
2019-02-21T09:05:05.352Z,23.30
2019-02-21T09:07:35.767Z,30.27
2019-02-21T09:10:06.029Z,25.77
2019-02-21T09:12:35.818Z,24.10
2019-02-21T09:15:07.628Z,23.37
2019-02-21T09:17:38.411Z,31.63
2019-02-21T09:20:09.870Z,27.50
2019-02-21T09:22:40.048Z,24.90
2019-02-21T09:25:12.001Z,23.53
2019-02-21T09:27:42.654Z,25.50
2019-02-21T09:30:17.793Z,26.27
2019-02-21T09:32:48.533Z,37.07
2019-02-21T09:35:18.658Z,26.37
2019-02-21T09:37:48.781Z,26.03
2019-02-21T09:40:18.705Z,28.70
2019-02-21T09:42:48.667Z,22.37
2019-02-21T09:45:18.589Z,25.47
2019-02-21T09:47:49.057Z,22.80
2019-02-21T09:50:19.765Z,24.03
2019-02-21T09:52:50.592Z,23.43
2019-02-21T09:55:20.732Z,23.37
2019-02-21T09:57:51.219Z,24.80
2019-02-21T10:00:22.039Z,24.90
2019-02-21T10:02:56.354Z,23.23
2019-02-21T10:05:25.185Z,21.73
2019-02-21T10:07:55.322Z,23.17
2019-02-21T10:10:25.832Z,30.50
2019-02-21T10:12:56.589Z,33.90
2019-02-21T10:15:27.469Z,20.93
2019-02-21T10:17:58.203Z,22.70
2019-02-21T10:20:28.926Z,26.60
2019-02-21T10:22:59.669Z,28.10
2019-02-21T10:25:30.354Z,21.20
2019-02-21T10:28:01.019Z,21.77
2019-02-21T10:30:31.776Z,20.90
2019-02-21T10:33:01.778Z,22.40
2019-02-21T10:35:31.797Z,18.20
2019-02-21T10:38:01.585Z,25.33
2019-02-21T10:40:33.317Z,19.73
2019-02-21T10:43:03.602Z,18.27
2019-02-21T10:45:34.269Z,18.03
2019-02-21T10:48:05.004Z,22.00
2019-02-21T10:50:35.120Z,19.17
2019-02-21T10:53:05.068Z,24.77
2019-02-21T10:55:34.984Z,18.77
2019-02-21T10:58:05.521Z,19.73
2019-02-21T11:00:36.234Z,18.00
2019-02-21T11:03:06.437Z,18.03
2019-02-21T11:05:36.223Z,17.97
2019-02-21T11:08:06.164Z,21.13
2019-02-21T11:10:36.100Z,26.67
2019-02-21T11:13:06.591Z,19.00
2019-02-21T11:15:36.700Z,23.67
2019-02-21T11:18:06.636Z,20.13
2019-02-21T11:20:38.327Z,18.30
2019-02-21T11:23:08.985Z,25.00
2019-02-21T11:25:39.050Z,23.07
2019-02-21T11:28:09.012Z,17.13
2019-02-21T11:30:38.860Z,18.80
2019-02-21T11:33:08.798Z,19.83
2019-02-21T11:35:38.732Z,15.20
2019-02-21T11:38:08.677Z,20.30
2019-02-21T11:40:39.076Z,17.60
2019-02-21T11:43:09.228Z,18.73
2019-02-21T11:45:39.141Z,19.37
2019-02-21T11:48:09.348Z,19.50
2019-02-21T11:50:39.397Z,14.70
2019-02-21T11:53:09.241Z,20.40
2019-02-21T11:55:39.173Z,17.97
2019-02-21T11:58:09.053Z,18.23
2019-02-21T12:00:40.162Z,17.03
2019-02-21T12:03:10.828Z,17.00
2019-02-21T12:05:41.466Z,17.17
2019-02-21T12:08:11.600Z,17.80
2019-02-21T12:10:41.444Z,18.97
2019-02-21T12:13:11.337Z,19.93
2019-02-21T12:15:41.156Z,16.60
2019-02-21T12:18:11.688Z,22.73
2019-02-21T12:20:41.750Z,21.97
2019-02-21T12:23:11.521Z,18.70
2019-02-21T12:25:41.908Z,20.90
2019-02-21T12:28:11.948Z,22.07
2019-02-21T12:30:41.899Z,19.30
2019-02-21T12:33:12.405Z,26.50
2019-02-21T12:35:42.571Z,20.70
2019-02-21T12:38:12.452Z,19.60
2019-02-21T12:40:42.330Z,24.80
2019-02-21T12:43:12.260Z,16.50
2019-02-21T12:45:42.122Z,19.27
2019-02-21T12:48:13.700Z,26.30
2019-02-21T12:50:44.729Z,21.70
2019-02-21T12:53:15.498Z,21.37
2019-02-21T12:55:46.159Z,19.50
2019-02-21T12:58:16.867Z,20.73
2019-02-21T13:00:47.598Z,16.70
2019-02-21T13:03:18.314Z,26.67
2019-02-21T13:05:49.034Z,19.83
2019-02-21T13:08:19.758Z,27.10
2019-02-21T13:10:50.373Z,20.80
2019-02-21T13:13:21.003Z,21.43
2019-02-21T13:15:51.140Z,22.77
2019-02-21T13:18:20.985Z,25.67
2019-02-21T13:20:51.526Z,21.70
2019-02-21T13:23:22.174Z,21.87
2019-02-21T13:25:52.923Z,23.50
2019-02-21T13:28:23.049Z,22.43
2019-02-21T13:30:53.560Z,22.73
2019-02-21T13:33:25.264Z,26.33
2019-02-21T13:35:55.391Z,21.97
2019-02-21T13:38:25.233Z,28.30
2019-02-21T13:40:55.881Z,28.50
2019-02-21T13:43:26.438Z,23.93
2019-02-21T13:45:57.109Z,26.83
2019-02-21T13:48:29.845Z,33.33
2019-02-21T13:50:59.978Z,31.23
2019-02-21T13:53:29.901Z,32.30
2019-02-21T13:56:00.029Z,30.13
2019-02-21T13:58:29.873Z,30.63
2019-02-21T14:00:59.819Z,28.97
2019-02-21T14:03:29.667Z,30.30
2019-02-21T14:06:03.572Z,26.37
2019-02-21T14:08:31.928Z,28.50
2019-02-21T14:11:01.816Z,29.50
2019-02-21T14:13:32.252Z,27.93
2019-02-21T14:16:02.321Z,23.37
2019-02-21T14:18:32.276Z,27.83
2019-02-21T14:21:02.068Z,25.50
2019-02-21T14:23:32.514Z,29.13
2019-02-21T14:26:02.665Z,24.23
2019-02-21T14:28:32.587Z,26.07
2019-02-21T14:31:02.515Z,27.87
2019-02-21T14:33:32.374Z,24.10
2019-02-21T14:36:02.837Z,25.10
2019-02-21T14:38:32.945Z,23.73
2019-02-21T14:41:03.222Z,30.67
2019-02-21T14:43:33.134Z,26.10
2019-02-21T14:46:03.007Z,26.33
2019-02-21T14:48:32.922Z,23.63
2019-02-21T14:51:02.975Z,22.13
2019-02-21T14:53:32.951Z,24.00
2019-02-21T14:56:02.973Z,24.80
2019-02-21T14:58:32.893Z,23.20
2019-02-21T15:01:04.331Z,22.20
2019-02-21T15:03:35.042Z,27.03
2019-02-21T15:06:05.192Z,24.13
2019-02-21T15:08:35.636Z,23.63
2019-02-21T15:11:06.366Z,25.37
2019-02-21T15:13:37.057Z,23.63
2019-02-21T15:16:07.872Z,23.60
2019-02-21T15:18:38.633Z,25.40
2019-02-21T15:21:09.293Z,23.50
2019-02-21T15:23:39.520Z,21.27
2019-02-21T15:26:09.406Z,30.40
2019-02-21T15:28:39.958Z,22.90
2019-02-21T15:31:10.056Z,23.23
2019-02-21T15:33:40.078Z,24.13
2019-02-21T15:36:09.992Z,23.80
2019-02-21T15:38:39.902Z,29.40
2019-02-21T15:41:10.404Z,27.57
2019-02-21T15:43:41.114Z,27.17
2019-02-21T15:46:11.810Z,23.83
2019-02-21T15:48:44.419Z,20.40
2019-02-21T15:51:14.287Z,26.50
2019-02-21T15:53:44.421Z,22.93
2019-02-21T15:56:14.359Z,28.40
2019-02-21T15:58:44.301Z,43.00
2019-02-21T16:01:15.030Z,46.97
2019-02-21T16:03:45.761Z,32.37
2019-02-21T16:06:16.606Z,26.27
2019-02-21T16:08:48.162Z,23.03
2019-02-21T16:11:18.913Z,26.03
2019-02-21T16:13:49.158Z,22.20
2019-02-21T16:16:20.949Z,27.33
2019-02-21T16:18:51.593Z,24.40
2019-02-21T16:21:22.262Z,27.60
2019-02-21T16:23:52.957Z,30.80
2019-02-21T16:26:22.993Z,24.13
2019-02-21T16:28:54.448Z,27.43
2019-02-21T16:31:24.992Z,25.10
2019-02-21T16:33:55.568Z,24.20
2019-02-21T16:36:25.692Z,25.97
2019-02-21T16:38:55.550Z,27.10
2019-02-21T16:41:35.823Z,28.20
2019-02-21T16:43:58.352Z,27.23
2019-02-21T16:46:28.925Z,27.57
2019-02-21T16:49:00.646Z,34.63
2019-02-21T16:51:31.363Z,29.40
2019-02-21T16:54:02.028Z,32.57
2019-02-21T16:56:32.656Z,34.50
2019-02-21T16:59:03.251Z,36.80
2019-02-21T17:01:33.898Z,29.07
2019-02-21T17:04:04.041Z,35.83
2019-02-21T17:06:34.022Z,36.10
2019-02-21T17:09:05.727Z,37.90
2019-02-21T17:11:37.738Z,37.10
2019-02-21T17:14:08.380Z,44.60
2019-02-21T17:16:38.951Z,47.73
2019-02-21T17:19:09.589Z,38.00
2019-02-21T17:21:40.213Z,30.87
2019-02-21T17:24:10.358Z,30.80
2019-02-21T17:26:40.785Z,29.03
2019-02-21T17:29:11.352Z,32.43
2019-02-21T17:31:41.986Z,36.90
2019-02-21T17:34:12.549Z,38.73
2019-02-21T17:36:43.181Z,32.83
2019-02-21T17:39:13.826Z,37.47
2019-02-21T17:41:44.513Z,42.07
2019-02-21T17:44:15.069Z,37.83
2019-02-21T17:46:45.116Z,38.40
2019-02-21T17:49:15.728Z,41.30
2019-02-21T17:51:46.470Z,38.53
2019-02-21T17:54:17.045Z,43.77
2019-02-21T17:56:47.737Z,38.20
2019-02-21T17:59:18.465Z,34.90
2019-02-21T18:01:49.277Z,38.73
2019-02-21T18:04:19.446Z,40.00
2019-02-21T18:06:49.292Z,34.40
2019-02-21T18:09:19.753Z,36.47
2019-02-21T18:11:49.897Z,40.03
2019-02-21T18:14:19.767Z,43.27
2019-02-21T18:16:49.644Z,33.80
2019-02-21T18:19:19.508Z,34.90
2019-02-21T18:21:49.922Z,30.77
2019-02-21T18:24:20.061Z,39.40
2019-02-21T18:26:50.674Z,32.77
2019-02-21T18:29:22.499Z,39.53
2019-02-21T18:31:52.668Z,45.53
2019-02-21T18:34:23.133Z,42.33
2019-02-21T18:36:53.862Z,40.40
2019-02-21T18:39:24.601Z,42.53
2019-02-21T18:41:55.293Z,39.37
2019-02-21T18:44:26.979Z,34.00
2019-02-21T18:46:57.676Z,35.57
2019-02-21T18:49:28.480Z,44.17
2019-02-21T18:51:58.577Z,38.67
2019-02-21T18:54:29.062Z,38.10
2019-02-21T18:56:59.834Z,48.80
2019-02-21T18:59:31.885Z,43.50
2019-02-21T19:02:02.285Z,37.27
2019-02-21T19:04:32.704Z,41.90
2019-02-21T19:07:03.395Z,45.03
2019-02-21T19:09:34.118Z,41.40
2019-02-21T19:12:04.994Z,41.30
2019-02-21T19:14:35.746Z,43.63
2019-02-21T19:17:06.566Z,48.93
2019-02-21T19:19:37.354Z,41.07
2019-02-21T19:22:08.130Z,36.50
2019-02-21T19:24:38.824Z,39.50
2019-02-21T19:27:09.070Z,35.73
2019-02-21T19:29:39.517Z,32.57
2019-02-21T19:32:09.525Z,36.70
2019-02-21T19:34:39.394Z,34.90
2019-02-21T19:37:10.966Z,40.00
2019-02-21T19:39:41.183Z,40.17
2019-02-21T19:42:11.508Z,39.03
2019-02-21T19:44:41.684Z,37.50
2019-02-21T19:47:12.217Z,36.07
2019-02-21T19:49:42.969Z,28.57
2019-02-21T19:52:13.708Z,36.77
2019-02-21T19:54:45.390Z,34.73
2019-02-21T19:57:15.555Z,33.77
2019-02-21T19:59:46.140Z,31.80
2019-02-21T20:02:17.012Z,30.37
2019-02-21T20:04:47.765Z,30.50
2019-02-21T20:07:17.921Z,33.23
2019-02-21T20:09:48.583Z,29.10
2019-02-21T20:12:19.392Z,28.47
2019-02-21T20:14:49.578Z,33.30
2019-02-21T20:17:20.182Z,36.40
2019-02-21T20:19:51.000Z,38.97
2019-02-21T20:22:21.690Z,41.53
2019-02-21T20:24:52.378Z,41.17
2019-02-21T20:27:22.538Z,48.57
2019-02-21T20:29:52.481Z,39.67
2019-02-21T20:32:22.441Z,42.17
2019-02-21T20:34:52.385Z,35.10
2019-02-21T20:37:23.026Z,31.57
2019-02-21T20:39:55.105Z,32.77
2019-02-21T20:42:25.977Z,37.40
2019-02-21T20:44:56.661Z,35.77
2019-02-21T20:47:27.420Z,34.93
2019-02-21T20:49:59.229Z,36.83
2019-02-21T20:52:30.102Z,38.20
2019-02-21T20:55:08.782Z,34.17
2019-02-21T20:57:39.182Z,45.83
2019-02-21T21:00:11.353Z,35.07
2019-02-21T21:02:42.114Z,36.30
2019-02-21T21:05:12.971Z,37.40
2019-02-21T21:07:43.754Z,40.53
2019-02-21T21:10:14.827Z,51.43
2019-02-21T21:12:45.608Z,43.90
2019-02-21T21:15:16.340Z,42.50
2019-02-21T21:17:46.976Z,42.20
2019-02-21T21:20:17.726Z,40.80
2019-02-21T21:22:48.383Z,44.30
2019-02-21T21:25:19.095Z,41.30
2019-02-21T21:27:49.853Z,41.30
2019-02-21T21:30:19.994Z,36.63
2019-02-21T21:32:50.477Z,31.43
2019-02-21T21:35:21.193Z,35.27
2019-02-21T21:37:51.860Z,35.00
2019-02-21T21:40:22.497Z,35.57
2019-02-21T21:42:53.164Z,39.87
2019-02-21T21:45:23.905Z,37.83
2019-02-21T21:47:57.230Z,39.03
2019-02-21T21:50:26.914Z,40.80
2019-02-21T21:52:57.657Z,37.23
2019-02-21T21:55:28.300Z,33.73
2019-02-21T21:57:59.058Z,43.00
2019-02-21T22:00:29.773Z,32.40
2019-02-21T22:03:00.430Z,33.77
2019-02-21T22:05:30.492Z,34.97
2019-02-21T22:08:00.993Z,33.00
2019-02-21T22:10:31.148Z,32.50
2019-02-21T22:13:01.619Z,29.30
2019-02-21T22:15:32.363Z,30.40
2019-02-21T22:18:03.129Z,30.70
2019-02-21T22:20:34.753Z,35.03
2019-02-21T22:23:04.933Z,33.43
2019-02-21T22:25:37.211Z,31.37
2019-02-21T22:28:06.459Z,35.33
2019-02-21T22:30:38.106Z,33.80
2019-02-21T22:33:08.846Z,28.50
2019-02-21T22:35:39.591Z,29.77
2019-02-21T22:38:10.345Z,28.03
2019-02-21T22:40:41.109Z,34.63
2019-02-21T22:43:11.789Z,36.17
2019-02-21T22:45:42.402Z,30.07
2019-02-21T22:48:13.121Z,31.00
2019-02-21T22:50:43.166Z,32.03
2019-02-21T22:53:13.653Z,33.20
2019-02-21T22:55:44.285Z,25.33
2019-02-21T22:58:15.012Z,30.00
2019-02-21T23:01:16.773Z,32.47
2019-02-21T23:03:50.419Z,27.97
2019-02-21T23:06:32.127Z,30.23
2019-02-21T23:09:02.846Z,33.13
2019-02-21T23:11:35.269Z,28.50
2019-02-21T23:14:05.925Z,37.97
2019-02-21T23:16:36.497Z,47.13
2019-02-21T23:19:07.167Z,41.63
2019-02-21T23:21:37.800Z,30.87
2019-02-21T23:24:07.943Z,34.73
2019-02-21T23:26:38.381Z,25.83
2019-02-21T23:29:10.050Z,26.70
2019-02-21T23:31:40.745Z,29.00
2019-02-21T23:34:17.617Z,29.90
2019-02-21T23:36:48.175Z,31.10
2019-02-21T23:39:18.758Z,30.50
2019-02-21T23:41:49.335Z,35.67
2019-02-21T23:44:19.923Z,34.07
2019-02-21T23:46:50.658Z,27.50
2019-02-21T23:49:21.289Z,25.50
2019-02-21T23:51:51.994Z,35.03
2019-02-21T23:54:22.645Z,29.13
2019-02-21T23:56:53.269Z,30.67
2019-02-21T23:59:23.924Z,35.07
